sensor_id;sensor_type;location;lat;lon;timestamp;P1;durP1;ratioP1;P2;durP2;ratioP2
23712;SDS011;12035;49.978;8.298;2023-02-15T00:01:39;35.17;;;14.43;;
23712;SDS011;12035;49.978;8.298;2023-02-15T00:06:39;32.20;;;13.85;;
23712;SDS011;12035;49.978;8.298;2023-02-15T00:11:37;39.90;;;15.80;;
23712;SDS011;12035;49.978;8.298;2023-02-15T00:16:40;29.20;;;13.55;;
23712;SDS011;12035;49.978;8.298;2023-02-15T00:21:41;49.35;;;17.38;;
23712;SDS011;12035;49.978;8.298;2023-02-15T00:26:39;35.45;;;14.18;;
23712;SDS011;12035;49.978;8.298;2023-02-15T00:31:37;30.35;;;14.00;;
23712;SDS011;12035;49.978;8.298;2023-02-15T00:36:34;30.38;;;13.20;;
23712;SDS011;12035;49.978;8.298;2023-02-15T00:41:33;30.20;;;13.40;;
23712;SDS011;12035;49.978;8.298;2023-02-15T00:46:30;35.65;;;16.52;;
23712;SDS011;12035;49.978;8.298;2023-02-15T00:51:28;32.53;;;14.45;;
23712;SDS011;12035;49.978;8.298;2023-02-15T00:56:26;41.03;;;15.43;;
23712;SDS011;12035;49.978;8.298;2023-02-15T01:01:25;32.83;;;15.95;;
23712;SDS011;12035;49.978;8.298;2023-02-15T01:06:22;34.83;;;15.40;;
23712;SDS011;12035;49.978;8.298;2023-02-15T01:11:20;38.08;;;18.38;;
23712;SDS011;12035;49.978;8.298;2023-02-15T01:16:20;62.80;;;19.77;;
23712;SDS011;12035;49.978;8.298;2023-02-15T01:21:23;38.60;;;17.23;;
23712;SDS011;12035;49.978;8.298;2023-02-15T01:26:22;65.07;;;18.23;;
23712;SDS011;12035;49.978;8.298;2023-02-15T01:31:19;54.10;;;20.02;;
23712;SDS011;12035;49.978;8.298;2023-02-15T01:36:17;44.35;;;17.30;;
23712;SDS011;12035;49.978;8.298;2023-02-15T01:41:15;39.00;;;14.55;;
23712;SDS011;12035;49.978;8.298;2023-02-15T01:46:18;36.72;;;16.42;;
23712;SDS011;12035;49.978;8.298;2023-02-15T01:51:20;61.60;;;18.88;;
23712;SDS011;12035;49.978;8.298;2023-02-15T01:56:25;39.88;;;17.73;;
23712;SDS011;12035;49.978;8.298;2023-02-15T02:01:26;40.65;;;15.38;;
23712;SDS011;12035;49.978;8.298;2023-02-15T02:06:24;28.48;;;13.82;;
23712;SDS011;12035;49.978;8.298;2023-02-15T02:11:24;31.75;;;14.95;;
23712;SDS011;12035;49.978;8.298;2023-02-15T02:16:22;48.97;;;17.15;;
23712;SDS011;12035;49.978;8.298;2023-02-15T02:27:30;35.38;;;16.77;;
23712;SDS011;12035;49.978;8.298;2023-02-15T02:38:15;45.63;;;16.90;;
23712;SDS011;12035;49.978;8.298;2023-02-15T02:43:21;37.53;;;17.10;;
23712;SDS011;12035;49.978;8.298;2023-02-15T02:48:30;44.00;;;14.75;;
23712;SDS011;12035;49.978;8.298;2023-02-15T02:53:30;28.30;;;13.95;;
23712;SDS011;12035;49.978;8.298;2023-02-15T02:58:29;43.33;;;15.30;;
23712;SDS011;12035;49.978;8.298;2023-02-15T03:03:34;42.70;;;15.80;;
23712;SDS011;12035;49.978;8.298;2023-02-15T03:08:36;27.63;;;13.30;;
23712;SDS011;12035;49.978;8.298;2023-02-15T03:13:37;31.67;;;15.05;;
23712;SDS011;12035;49.978;8.298;2023-02-15T03:18:37;30.67;;;14.02;;
23712;SDS011;12035;49.978;8.298;2023-02-15T03:23:39;26.55;;;12.43;;
23712;SDS011;12035;49.978;8.298;2023-02-15T03:28:38;30.38;;;15.07;;
23712;SDS011;12035;49.978;8.298;2023-02-15T03:33:44;43.85;;;17.77;;
23712;SDS011;12035;49.978;8.298;2023-02-15T03:38:49;32.47;;;15.90;;
23712;SDS011;12035;49.978;8.298;2023-02-15T03:43:54;33.90;;;15.23;;
23712;SDS011;12035;49.978;8.298;2023-02-15T03:48:57;37.10;;;15.93;;
23712;SDS011;12035;49.978;8.298;2023-02-15T03:54:01;30.42;;;15.43;;
23712;SDS011;12035;49.978;8.298;2023-02-15T03:59:02;33.67;;;15.57;;
23712;SDS011;12035;49.978;8.298;2023-02-15T04:04:19;24.45;;;12.45;;
23712;SDS011;12035;49.978;8.298;2023-02-15T04:09:19;46.08;;;17.08;;
23712;SDS011;12035;49.978;8.298;2023-02-15T04:14:34;30.25;;;14.70;;
23712;SDS011;12035;49.978;8.298;2023-02-15T04:19:50;31.38;;;15.10;;
23712;SDS011;12035;49.978;8.298;2023-02-15T04:25:05;29.05;;;13.13;;
23712;SDS011;12035;49.978;8.298;2023-02-15T04:30:08;42.88;;;14.88;;
23712;SDS011;12035;49.978;8.298;2023-02-15T04:35:09;27.55;;;12.63;;
23712;SDS011;12035;49.978;8.298;2023-02-15T04:40:08;29.10;;;14.00;;
23712;SDS011;12035;49.978;8.298;2023-02-15T04:45:08;26.15;;;12.35;;
23712;SDS011;12035;49.978;8.298;2023-02-15T04:50:06;31.13;;;13.27;;
23712;SDS011;12035;49.978;8.298;2023-02-15T04:55:05;23.10;;;11.23;;
23712;SDS011;12035;49.978;8.298;2023-02-15T05:00:04;27.20;;;12.35;;
23712;SDS011;12035;49.978;8.298;2023-02-15T05:05:04;42.65;;;14.02;;
23712;SDS011;12035;49.978;8.298;2023-02-15T05:10:06;48.67;;;14.48;;
23712;SDS011;12035;49.978;8.298;2023-02-15T05:15:04;56.88;;;13.73;;
23712;SDS011;12035;49.978;8.298;2023-02-15T05:20:02;34.53;;;14.13;;
23712;SDS011;12035;49.978;8.298;2023-02-15T05:25:01;31.48;;;12.38;;
23712;SDS011;12035;49.978;8.298;2023-02-15T05:30:17;28.33;;;12.68;;
23712;SDS011;12035;49.978;8.298;2023-02-15T05:35:15;43.08;;;14.52;;
23712;SDS011;12035;49.978;8.298;2023-02-15T05:40:12;30.77;;;10.35;;
23712;SDS011;12035;49.978;8.298;2023-02-15T05:45:09;26.23;;;12.55;;
23712;SDS011;12035;49.978;8.298;2023-02-15T05:50:10;46.25;;;11.02;;
23712;SDS011;12035;49.978;8.298;2023-02-15T05:55:07;32.25;;;12.40;;
23712;SDS011;12035;49.978;8.298;2023-02-15T06:00:05;26.42;;;11.68;;
23712;SDS011;12035;49.978;8.298;2023-02-15T06:05:05;43.83;;;13.27;;
23712;SDS011;12035;49.978;8.298;2023-02-15T06:10:06;24.25;;;11.50;;
23712;SDS011;12035;49.978;8.298;2023-02-15T06:15:05;22.23;;;10.10;;
23712;SDS011;12035;49.978;8.298;2023-02-15T06:20:03;19.38;;;10.00;;
23712;SDS011;12035;49.978;8.298;2023-02-15T06:25:03;19.05;;;8.93;;
23712;SDS011;12035;49.978;8.298;2023-02-15T06:30:01;19.75;;;9.38;;
23712;SDS011;12035;49.978;8.298;2023-02-15T06:34:58;17.20;;;8.07;;
23712;SDS011;12035;49.978;8.298;2023-02-15T06:39:55;30.73;;;11.50;;
23712;SDS011;12035;49.978;8.298;2023-02-15T06:44:55;20.60;;;10.82;;
23712;SDS011;12035;49.978;8.298;2023-02-15T06:49:52;17.55;;;8.80;;
23712;SDS011;12035;49.978;8.298;2023-02-15T06:54:49;17.65;;;8.68;;
23712;SDS011;12035;49.978;8.298;2023-02-15T06:59:47;16.65;;;8.32;;
23712;SDS011;12035;49.978;8.298;2023-02-15T07:04:45;18.98;;;9.70;;
23712;SDS011;12035;49.978;8.298;2023-02-15T07:09:42;18.27;;;9.38;;
23712;SDS011;12035;49.978;8.298;2023-02-15T07:14:40;18.23;;;9.32;;
23712;SDS011;12035;49.978;8.298;2023-02-15T07:19:36;15.80;;;8.18;;
23712;SDS011;12035;49.978;8.298;2023-02-15T07:24:35;14.63;;;7.93;;
23712;SDS011;12035;49.978;8.298;2023-02-15T07:29:32;15.38;;;7.75;;
23712;SDS011;12035;49.978;8.298;2023-02-15T07:34:29;14.25;;;7.22;;
23712;SDS011;12035;49.978;8.298;2023-02-15T07:39:26;16.17;;;7.60;;
23712;SDS011;12035;49.978;8.298;2023-02-15T07:44:25;18.13;;;8.80;;
23712;SDS011;12035;49.978;8.298;2023-02-15T07:49:22;16.50;;;8.65;;
23712;SDS011;12035;49.978;8.298;2023-02-15T07:54:19;16.00;;;7.40;;
23712;SDS011;12035;49.978;8.298;2023-02-15T07:59:16;16.05;;;7.47;;
23712;SDS011;12035;49.978;8.298;2023-02-15T08:04:15;16.83;;;7.22;;
23712;SDS011;12035;49.978;8.298;2023-02-15T08:09:13;16.20;;;7.57;;
23712;SDS011;12035;49.978;8.298;2023-02-15T08:14:10;16.48;;;7.70;;
23712;SDS011;12035;49.978;8.298;2023-02-15T08:19:10;15.18;;;7.35;;
23712;SDS011;12035;49.978;8.298;2023-02-15T08:24:11;14.80;;;7.35;;
23712;SDS011;12035;49.978;8.298;2023-02-15T08:29:09;15.20;;;7.85;;
23712;SDS011;12035;49.978;8.298;2023-02-15T08:34:07;16.33;;;7.80;;
23712;SDS011;12035;49.978;8.298;2023-02-15T08:39:05;18.13;;;7.93;;
23712;SDS011;12035;49.978;8.298;2023-02-15T08:44:06;16.00;;;8.52;;
23712;SDS011;12035;49.978;8.298;2023-02-15T08:49:05;16.33;;;8.32;;
23712;SDS011;12035;49.978;8.298;2023-02-15T08:54:06;14.88;;;7.30;;
23712;SDS011;12035;49.978;8.298;2023-02-15T08:59:07;17.77;;;9.07;;
23712;SDS011;12035;49.978;8.298;2023-02-15T09:04:10;20.25;;;10.05;;
23712;SDS011;12035;49.978;8.298;2023-02-15T09:09:08;18.17;;;8.88;;
23712;SDS011;12035;49.978;8.298;2023-02-15T09:14:09;18.00;;;8.35;;
23712;SDS011;12035;49.978;8.298;2023-02-15T09:19:09;19.67;;;9.10;;
23712;SDS011;12035;49.978;8.298;2023-02-15T09:24:07;20.77;;;10.40;;
23712;SDS011;12035;49.978;8.298;2023-02-15T09:29:09;17.17;;;8.93;;
23712;SDS011;12035;49.978;8.298;2023-02-15T09:34:08;21.08;;;8.80;;
23712;SDS011;12035;49.978;8.298;2023-02-15T09:39:07;35.92;;;12.18;;
23712;SDS011;12035;49.978;8.298;2023-02-15T09:44:11;19.45;;;9.82;;
23712;SDS011;12035;49.978;8.298;2023-02-15T09:49:16;22.63;;;10.93;;
23712;SDS011;12035;49.978;8.298;2023-02-15T09:54:33;21.95;;;10.57;;
23712;SDS011;12035;49.978;8.298;2023-02-15T09:59:58;23.42;;;11.00;;
23712;SDS011;12035;49.978;8.298;2023-02-15T10:05:08;24.67;;;11.65;;
23712;SDS011;12035;49.978;8.298;2023-02-15T10:10:21;22.50;;;10.75;;
23712;SDS011;12035;49.978;8.298;2023-02-15T10:15:30;23.20;;;11.57;;
23712;SDS011;12035;49.978;8.298;2023-02-15T10:20:50;19.42;;;9.98;;
23712;SDS011;12035;49.978;8.298;2023-02-15T10:25:55;21.05;;;9.30;;
23712;SDS011;12035;49.978;8.298;2023-02-15T10:31:06;17.50;;;8.75;;
23712;SDS011;12035;49.978;8.298;2023-02-15T10:36:19;19.10;;;8.27;;
23712;SDS011;12035;49.978;8.298;2023-02-15T10:41:29;18.40;;;9.13;;
23712;SDS011;12035;49.978;8.298;2023-02-15T10:46:51;21.33;;;10.63;;
23712;SDS011;12035;49.978;8.298;2023-02-15T10:52:29;17.10;;;8.95;;
23712;SDS011;12035;49.978;8.298;2023-02-15T10:57:45;17.90;;;8.63;;
23712;SDS011;12035;49.978;8.298;2023-02-15T11:02:58;18.73;;;8.25;;
23712;SDS011;12035;49.978;8.298;2023-02-15T11:08:16;16.92;;;9.05;;
23712;SDS011;12035;49.978;8.298;2023-02-15T11:13:17;18.52;;;9.65;;
23712;SDS011;12035;49.978;8.298;2023-02-15T11:18:19;21.17;;;10.68;;
23712;SDS011;12035;49.978;8.298;2023-02-15T11:23:23;19.92;;;10.02;;
23712;SDS011;12035;49.978;8.298;2023-02-15T11:28:25;22.48;;;11.77;;
23712;SDS011;12035;49.978;8.298;2023-02-15T11:33:31;20.95;;;10.52;;
23712;SDS011;12035;49.978;8.298;2023-02-15T11:38:33;20.23;;;9.52;;
23712;SDS011;12035;49.978;8.298;2023-02-15T11:43:33;18.95;;;10.50;;
23712;SDS011;12035;49.978;8.298;2023-02-15T11:48:36;21.73;;;11.32;;
23712;SDS011;12035;49.978;8.298;2023-02-15T11:53:33;22.23;;;10.90;;
23712;SDS011;12035;49.978;8.298;2023-02-15T11:58:35;22.73;;;11.68;;
23712;SDS011;12035;49.978;8.298;2023-02-15T12:03:42;21.75;;;10.90;;
23712;SDS011;12035;49.978;8.298;2023-02-15T12:08:45;18.83;;;9.70;;
23712;SDS011;12035;49.978;8.298;2023-02-15T12:18:53;14.43;;;8.73;;
23712;SDS011;12035;49.978;8.298;2023-02-15T12:23:54;21.08;;;10.65;;
23712;SDS011;12035;49.978;8.298;2023-02-15T12:28:55;20.98;;;11.35;;
23712;SDS011;12035;49.978;8.298;2023-02-15T12:33:59;20.23;;;11.27;;
23712;SDS011;12035;49.978;8.298;2023-02-15T12:39:02;19.52;;;10.70;;
23712;SDS011;12035;49.978;8.298;2023-02-15T12:44:16;17.55;;;9.48;;
23712;SDS011;12035;49.978;8.298;2023-02-15T12:49:18;16.58;;;9.25;;
23712;SDS011;12035;49.978;8.298;2023-02-15T12:54:30;16.02;;;9.23;;
23712;SDS011;12035;49.978;8.298;2023-02-15T12:59:36;18.45;;;11.05;;
23712;SDS011;12035;49.978;8.298;2023-02-15T13:04:35;20.73;;;10.77;;
23712;SDS011;12035;49.978;8.298;2023-02-15T13:09:35;22.13;;;11.45;;
23712;SDS011;12035;49.978;8.298;2023-02-15T13:14:34;21.30;;;11.18;;
23712;SDS011;12035;49.978;8.298;2023-02-15T13:19:33;19.42;;;10.52;;
23712;SDS011;12035;49.978;8.298;2023-02-15T13:24:36;21.30;;;10.35;;
23712;SDS011;12035;49.978;8.298;2023-02-15T13:29:38;19.10;;;9.98;;
23712;SDS011;12035;49.978;8.298;2023-02-15T13:34:37;19.63;;;10.65;;
23712;SDS011;12035;49.978;8.298;2023-02-15T13:39:37;21.15;;;11.52;;
23712;SDS011;12035;49.978;8.298;2023-02-15T13:44:49;20.13;;;10.70;;
23712;SDS011;12035;49.978;8.298;2023-02-15T13:55:36;18.25;;;9.73;;
23712;SDS011;12035;49.978;8.298;2023-02-15T14:00:38;24.63;;;13.77;;
23712;SDS011;12035;49.978;8.298;2023-02-15T14:05:55;20.85;;;11.90;;
23712;SDS011;12035;49.978;8.298;2023-02-15T14:11:11;24.17;;;12.00;;
23712;SDS011;12035;49.978;8.298;2023-02-15T14:16:16;24.52;;;13.68;;
23712;SDS011;12035;49.978;8.298;2023-02-15T14:21:26;21.25;;;11.93;;
23712;SDS011;12035;49.978;8.298;2023-02-15T14:26:30;20.30;;;11.27;;
23712;SDS011;12035;49.978;8.298;2023-02-15T14:31:38;23.00;;;12.40;;
23712;SDS011;12035;49.978;8.298;2023-02-15T14:36:39;23.15;;;12.35;;
23712;SDS011;12035;49.978;8.298;2023-02-15T14:41:37;24.73;;;13.38;;
23712;SDS011;12035;49.978;8.298;2023-02-15T14:46:42;27.88;;;15.10;;
23712;SDS011;12035;49.978;8.298;2023-02-15T14:51:57;24.27;;;12.95;;
23712;SDS011;12035;49.978;8.298;2023-02-15T14:57:21;23.73;;;12.82;;
23712;SDS011;12035;49.978;8.298;2023-02-15T15:02:40;22.85;;;12.52;;
23712;SDS011;12035;49.978;8.298;2023-02-15T15:07:44;20.08;;;12.23;;
23712;SDS011;12035;49.978;8.298;2023-02-15T15:12:44;19.27;;;11.82;;
23712;SDS011;12035;49.978;8.298;2023-02-15T15:17:57;22.88;;;13.40;;
23712;SDS011;12035;49.978;8.298;2023-02-15T15:51:10;26.83;;;15.13;;
23712;SDS011;12035;49.978;8.298;2023-02-15T15:56:17;29.33;;;16.25;;
23712;SDS011;12035;49.978;8.298;2023-02-15T16:01:20;25.17;;;14.38;;
23712;SDS011;12035;49.978;8.298;2023-02-15T16:06:27;27.67;;;14.93;;
23712;SDS011;12035;49.978;8.298;2023-02-15T16:11:31;22.92;;;13.77;;
23712;SDS011;12035;49.978;8.298;2023-02-15T16:16:28;24.42;;;14.05;;
23712;SDS011;12035;49.978;8.298;2023-02-15T16:21:27;28.55;;;14.88;;
23712;SDS011;12035;49.978;8.298;2023-02-15T16:26:37;31.88;;;15.93;;
23712;SDS011;12035;49.978;8.298;2023-02-15T16:31:57;27.08;;;14.95;;
23712;SDS011;12035;49.978;8.298;2023-02-15T16:37:13;28.45;;;14.93;;
23712;SDS011;12035;49.978;8.298;2023-02-15T16:42:15;27.10;;;15.02;;
23712;SDS011;12035;49.978;8.298;2023-02-15T16:47:15;23.20;;;12.43;;
23712;SDS011;12035;49.978;8.298;2023-02-15T16:52:15;26.55;;;14.13;;
23712;SDS011;12035;49.978;8.298;2023-02-15T16:57:20;27.55;;;15.55;;
23712;SDS011;12035;49.978;8.298;2023-02-15T17:02:21;27.13;;;14.10;;
23712;SDS011;12035;49.978;8.298;2023-02-15T17:07:24;28.65;;;15.57;;
23712;SDS011;12035;49.978;8.298;2023-02-15T17:12:44;26.52;;;15.63;;
23712;SDS011;12035;49.978;8.298;2023-02-15T17:17:43;31.10;;;16.55;;
23712;SDS011;12035;49.978;8.298;2023-02-15T17:22:42;33.92;;;17.88;;
23712;SDS011;12035;49.978;8.298;2023-02-15T17:27:40;36.70;;;16.75;;
23712;SDS011;12035;49.978;8.298;2023-02-15T17:32:43;32.13;;;15.88;;
23712;SDS011;12035;49.978;8.298;2023-02-15T17:37:54;34.47;;;17.80;;
23712;SDS011;12035;49.978;8.298;2023-02-15T17:43:02;32.97;;;17.60;;
23712;SDS011;12035;49.978;8.298;2023-02-15T17:48:00;37.30;;;19.02;;
23712;SDS011;12035;49.978;8.298;2023-02-15T17:53:00;37.40;;;19.08;;
23712;SDS011;12035;49.978;8.298;2023-02-15T17:57:58;33.33;;;16.67;;
23712;SDS011;12035;49.978;8.298;2023-02-15T18:02:56;34.25;;;17.30;;
23712;SDS011;12035;49.978;8.298;2023-02-15T18:08:13;32.78;;;16.70;;
23712;SDS011;12035;49.978;8.298;2023-02-15T18:13:30;36.20;;;18.88;;
23712;SDS011;12035;49.978;8.298;2023-02-15T18:18:28;38.80;;;18.85;;
23712;SDS011;12035;49.978;8.298;2023-02-15T18:23:26;37.00;;;18.83;;
23712;SDS011;12035;49.978;8.298;2023-02-15T18:28:23;31.70;;;15.32;;
23712;SDS011;12035;49.978;8.298;2023-02-15T18:33:24;38.63;;;18.88;;
23712;SDS011;12035;49.978;8.298;2023-02-15T18:38:31;34.20;;;17.55;;
23712;SDS011;12035;49.978;8.298;2023-02-15T18:43:29;38.97;;;19.27;;
23712;SDS011;12035;49.978;8.298;2023-02-15T18:48:26;36.67;;;17.75;;
23712;SDS011;12035;49.978;8.298;2023-02-15T18:53:23;44.38;;;21.17;;
23712;SDS011;12035;49.978;8.298;2023-02-15T18:58:22;46.97;;;22.70;;
23712;SDS011;12035;49.978;8.298;2023-02-15T19:03:22;39.92;;;20.73;;
23712;SDS011;12035;49.978;8.298;2023-02-15T19:08:20;40.38;;;20.48;;
23712;SDS011;12035;49.978;8.298;2023-02-15T19:13:18;39.88;;;19.50;;
23712;SDS011;12035;49.978;8.298;2023-02-15T19:18:20;40.90;;;17.90;;
23712;SDS011;12035;49.978;8.298;2023-02-15T19:23:28;36.17;;;18.52;;
23712;SDS011;12035;49.978;8.298;2023-02-15T19:28:33;38.45;;;18.35;;
23712;SDS011;12035;49.978;8.298;2023-02-15T19:33:36;47.72;;;20.50;;
23712;SDS011;12035;49.978;8.298;2023-02-15T19:38:36;43.88;;;21.08;;
23712;SDS011;12035;49.978;8.298;2023-02-15T19:43:39;43.80;;;20.55;;
23712;SDS011;12035;49.978;8.298;2023-02-15T19:48:36;42.70;;;20.33;;
23712;SDS011;12035;49.978;8.298;2023-02-15T19:53:35;43.85;;;18.85;;
23712;SDS011;12035;49.978;8.298;2023-02-15T19:58:41;40.40;;;18.83;;
23712;SDS011;12035;49.978;8.298;2023-02-15T20:03:38;37.38;;;17.35;;
23712;SDS011;12035;49.978;8.298;2023-02-15T20:08:43;42.85;;;18.75;;
23712;SDS011;12035;49.978;8.298;2023-02-15T20:13:49;39.65;;;18.25;;
23712;SDS011;12035;49.978;8.298;2023-02-15T20:18:46;40.92;;;18.73;;
23712;SDS011;12035;49.978;8.298;2023-02-15T20:23:47;41.80;;;19.63;;
23712;SDS011;12035;49.978;8.298;2023-02-15T20:28:52;37.72;;;17.17;;
23712;SDS011;12035;49.978;8.298;2023-02-15T20:33:50;37.75;;;17.27;;
23712;SDS011;12035;49.978;8.298;2023-02-15T20:38:52;33.90;;;16.60;;
23712;SDS011;12035;49.978;8.298;2023-02-15T20:44:00;37.50;;;17.90;;
23712;SDS011;12035;49.978;8.298;2023-02-15T20:49:13;36.22;;;17.48;;
23712;SDS011;12035;49.978;8.298;2023-02-15T20:54:11;31.83;;;15.57;;
23712;SDS011;12035;49.978;8.298;2023-02-15T20:59:22;34.88;;;16.58;;
23712;SDS011;12035;49.978;8.298;2023-02-15T21:04:27;32.40;;;16.38;;
23712;SDS011;12035;49.978;8.298;2023-02-15T21:09:26;35.33;;;17.20;;
23712;SDS011;12035;49.978;8.298;2023-02-15T21:19:48;37.83;;;15.60;;
23712;SDS011;12035;49.978;8.298;2023-02-15T21:24:49;34.58;;;15.38;;
23712;SDS011;12035;49.978;8.298;2023-02-15T21:29:54;40.97;;;17.02;;
23712;SDS011;12035;49.978;8.298;2023-02-15T21:35:01;36.60;;;16.13;;
23712;SDS011;12035;49.978;8.298;2023-02-15T21:39:59;33.88;;;15.20;;
23712;SDS011;12035;49.978;8.298;2023-02-15T21:45:05;39.97;;;16.48;;
23712;SDS011;12035;49.978;8.298;2023-02-15T21:50:30;59.30;;;25.33;;
23712;SDS011;12035;49.978;8.298;2023-02-15T21:55:45;41.60;;;17.08;;
23712;SDS011;12035;49.978;8.298;2023-02-15T22:00:46;34.50;;;15.30;;
23712;SDS011;12035;49.978;8.298;2023-02-15T22:05:56;30.27;;;14.05;;
23712;SDS011;12035;49.978;8.298;2023-02-15T22:10:53;34.17;;;15.02;;
23712;SDS011;12035;49.978;8.298;2023-02-15T22:15:53;36.10;;;15.70;;
23712;SDS011;12035;49.978;8.298;2023-02-15T22:20:51;29.48;;;14.65;;
23712;SDS011;12035;49.978;8.298;2023-02-15T22:25:50;33.90;;;14.25;;
23712;SDS011;12035;49.978;8.298;2023-02-15T22:30:54;28.92;;;14.48;;
23712;SDS011;12035;49.978;8.298;2023-02-15T22:35:51;32.00;;;15.02;;
23712;SDS011;12035;49.978;8.298;2023-02-15T22:40:48;31.45;;;14.63;;
23712;SDS011;12035;49.978;8.298;2023-02-15T22:45:47;30.63;;;14.02;;
23712;SDS011;12035;49.978;8.298;2023-02-15T22:50:46;36.45;;;15.02;;
23712;SDS011;12035;49.978;8.298;2023-02-15T22:55:44;28.40;;;14.68;;
23712;SDS011;12035;49.978;8.298;2023-02-15T23:00:42;27.17;;;12.80;;
23712;SDS011;12035;49.978;8.298;2023-02-15T23:05:40;27.30;;;13.35;;
23712;SDS011;12035;49.978;8.298;2023-02-15T23:10:39;26.95;;;13.48;;
23712;SDS011;12035;49.978;8.298;2023-02-15T23:15:39;30.42;;;13.52;;
23712;SDS011;12035;49.978;8.298;2023-02-15T23:20:38;33.28;;;14.32;;
23712;SDS011;12035;49.978;8.298;2023-02-15T23:25:35;23.98;;;12.50;;
23712;SDS011;12035;49.978;8.298;2023-02-15T23:30:34;27.23;;;12.45;;
23712;SDS011;12035;49.978;8.298;2023-02-15T23:35:31;25.42;;;11.80;;
23712;SDS011;12035;49.978;8.298;2023-02-15T23:40:28;31.95;;;13.18;;
23712;SDS011;12035;49.978;8.298;2023-02-15T23:45:59;23.17;;;11.50;;
23712;SDS011;12035;49.978;8.298;2023-02-15T23:50:57;20.95;;;10.48;;
23712;SDS011;12035;49.978;8.298;2023-02-15T23:55:55;24.33;;;12.00;;
